WetterOnline ( https://www.wetteronline.de )

Wetter aktuell Fürstenzell

Aktuelles Wetter: Fürstenzell (480m)

6-stündlich | Neueste Meldungen
Ortszeit Temperatur Wetter
Fr, 07.05. 20:00 7.0° C wolkenlos
Fr, 07.05. 14:00 8.1° C Sprühregen
Fr, 07.05. 8:00 7.6° C bedeckt
Fr, 07.05. 2:00 7.3° C bedeckt
Do, 06.05. 20:00 7.3° C leichter Regen
Do, 06.05. 14:00 10.6° C bedeckt
Do, 06.05. 8:00 4.9° C bedeckt
Do, 06.05. 2:00 3.4° C bedeckt
Ortszeit Temperatur Wetter
Fr, 07.05. 21:30 6.0° C wolkenlos
Fr, 07.05. 21:20 6.0° C wolkenlos
Fr, 07.05. 21:10 6.2° C wolkenlos
Fr, 07.05. 21:00 6.1° C leicht bewölkt
Fr, 07.05. 20:50 6.1° C leicht bewölkt
Fr, 07.05. 20:40 6.2° C leicht bewölkt
Fr, 07.05. 20:30 6.7° C leicht bewölkt
Fr, 07.05. 20:00 7.0° C wolkenlos
Fr, 07.05. 19:30 7.1° C leicht bewölkt
Fr, 07.05. 19:00 7.2° C fast wolkenlos
Fr, 07.05. 18:30 5.8° C leichter Regen
Fr, 07.05. 18:00 9.0° C wolkig
Ortszeit Relative Feuchte Sichtweite
Fr, 07.05. 20:00 66% 55 km
Fr, 07.05. 14:00 78% >70 km
Fr, 07.05. 8:00 87% >70 km
Fr, 07.05. 2:00 94% 18 km
Do, 06.05. 20:00 91% 10 km
Do, 06.05. 14:00 54% >70 km
Do, 06.05. 8:00 86% 60 km
Do, 06.05. 2:00 79% >70 km
Ortszeit Relative Feuchte Sichtweite
Fr, 07.05. 21:30 67% 60 km
Fr, 07.05. 21:20 67% -
Fr, 07.05. 21:10 66% -
Fr, 07.05. 21:00 67% 60 km
Fr, 07.05. 20:50 67% -
Fr, 07.05. 20:40 67% -
Fr, 07.05. 20:30 62% 55 km
Fr, 07.05. 20:00 66% 55 km
Fr, 07.05. 19:30 68% 50 km
Fr, 07.05. 19:00 70% 55 km
Fr, 07.05. 18:30 76% 8 km
Fr, 07.05. 18:00 58% 55 km
Ortszeit Niederschlagsmenge Niederschlagsart
Fr, 07.05. 20:00 5 l/m2 in 12 Std. Regen
Fr, 07.05. 14:00 2 l/m2 in 6 Std. Regen
Fr, 07.05. 8:00 7 l/m2 in 12 Std. Regen
Fr, 07.05. 2:00 7 l/m2 in 6 Std. Regen
Do, 06.05. 20:00 2 l/m2 in 12 Std. Regen
Do, 06.05. 14:00 0.0 l/m2 in 6 Std. -
Do, 06.05. 8:00 0.7 l/m2 in 12 Std. Regen
Do, 06.05. 2:00 0.1 l/m2 in 6 Std. Regen
Ortszeit Niederschlagsmenge Niederschlagsart
Fr, 07.05. 21:30 0.0 l/m2 in 1 Std. -
Fr, 07.05. 21:20 keine Meldung -
Fr, 07.05. 21:10 keine Meldung -
Fr, 07.05. 21:00 0.0 l/m2 in 1 Std. -
Fr, 07.05. 20:50 keine Meldung -
Fr, 07.05. 20:40 keine Meldung -
Fr, 07.05. 20:30 0.0 l/m2 in 1 Std. -
Fr, 07.05. 20:00 0.0 l/m2 in 1 Std. Regen
Fr, 07.05. 19:30 0.0 l/m2 in 1 Std. -
Fr, 07.05. 19:00 0.3 l/m2 in 1 Std. Regen
Fr, 07.05. 18:30 0.2 l/m2 in 1 Std. -
Fr, 07.05. 18:00 0.0 l/m2 in 1 Std. -
Ortszeit Stärke Spitze Richtung
km/h Bft. km/h Grad Sektor
Fr, 07.05. 20:00 14 3 61 280° W
Fr, 07.05. 14:00 20 4 39 270° W
Fr, 07.05. 8:00 11 2 36 260° W
Fr, 07.05. 2:00 13 3 24 210° SW
Do, 06.05. 20:00 7 2 29 60° NO
Do, 06.05. 14:00 11 2 32 240° SW
Do, 06.05. 8:00 7 2 40 200° S
Do, 06.05. 2:00 13 3 61 230° SW
Ortszeit Stärke Spitze Richtung
km/h Bft. km/h Grad Sektor
Fr, 07.05. 21:30 13 3 22 280° W
Fr, 07.05. 21:20 13 3 - 280° W
Fr, 07.05. 21:10 14 3 - 280° W
Fr, 07.05. 21:00 15 3 30 280° W
Fr, 07.05. 20:50 15 3 - 280° W
Fr, 07.05. 20:40 15 3 - 280° W
Fr, 07.05. 20:30 19 3 30 280° W
Fr, 07.05. 20:00 14 3 40 280° W
Fr, 07.05. 19:30 18 3 40 270° W
Fr, 07.05. 19:00 18 3 58 280° W
Fr, 07.05. 18:30 37 5 59 290° W
Fr, 07.05. 18:00 24 4 46 280° W
Ortszeit Untergrenze Bedeckung Gattung
total tief tief mittel hoch
Fr, 07.05. 20:00 - 0/8 0/8 - - -
Fr, 07.05. 14:00 540 m 8/8 8/8 - - -
Fr, 07.05. 8:00 480 m 8/8 8/8 - - -
Fr, 07.05. 2:00 30 m 8/8 8/8 - - -
Do, 06.05. 20:00 1260 m 8/8 8/8 - - -
Do, 06.05. 14:00 1800 m 8/8 8/8 - - -
Do, 06.05. 8:00 1260 m 8/8 8/8 - - -
Do, 06.05. 2:00 2100 m 8/8 8/8 - - -
Ortszeit Bedeckungsgrad in Achtel und Wolkenuntergrenze
Fr, 07.05. 21:30 keine Wolken
Fr, 07.05. 21:20 keine Wolken
Fr, 07.05. 21:10 keine Wolken
Fr, 07.05. 21:00 1(1410m)
Fr, 07.05. 20:50 1(1410m) 2(1500m)
Fr, 07.05. 20:40 2(1470m)
Fr, 07.05. 20:30 2(1500m) 4(1500m)
Fr, 07.05. 20:00 keine Wolken
Fr, 07.05. 19:30 3(2100m)
Fr, 07.05. 19:00 1(2100m)
Fr, 07.05. 18:30 2(750m) 7(1500m) 7(2100m)
Fr, 07.05. 18:00 3(1380m) 4(1800m) 7(1500m)
Ortszeit Luftdruck NN (hPa) Tendenz (hPa in 3 Std.)
Fr, 07.05. 20:00 1018 + 2,9
Fr, 07.05. 14:00 1013 + 1,7
Fr, 07.05. 8:00 1009 + 1,3
Fr, 07.05. 2:00 1007 - 0,1
Do, 06.05. 20:00 1008 - 1,2
Do, 06.05. 14:00 1011 - 1,1
Do, 06.05. 8:00 1014 0,0
Do, 06.05. 2:00 1015 + 0,1
Ortszeit Luftdruck NN (hPa) Tendenz (hPa in 3 Std.)
Fr, 07.05. 21:30 1020 + 2,3
Fr, 07.05. 21:20 1020 keine Meldung
Fr, 07.05. 21:10 1020 keine Meldung
Fr, 07.05. 21:00 1020 + 2,9
Fr, 07.05. 20:50 1020 keine Meldung
Fr, 07.05. 20:40 1019 keine Meldung
Fr, 07.05. 20:30 1019 + 2,9
Fr, 07.05. 20:00 1018 + 2,9
Fr, 07.05. 19:30 1018 + 1,9
Fr, 07.05. 19:00 1017 + 2,5
Fr, 07.05. 18:30 1018 + 2,8
Fr, 07.05. 18:00 1016 + 1,8
Ortszeit Schneehöhe (cm)
Fr, 07.05. 20:00 0
Fr, 07.05. 14:00 0
Fr, 07.05. 8:00 0
Fr, 07.05. 2:00 0
Do, 06.05. 20:00 0
Do, 06.05. 14:00 0
Do, 06.05. 8:00 0
Do, 06.05. 2:00 0
Ortszeit Schneehöhe (cm)
Fr, 07.05. 21:30 0
Fr, 07.05. 21:20 0
Fr, 07.05. 21:10 0
Fr, 07.05. 21:00 0
Fr, 07.05. 20:50 0
Fr, 07.05. 20:40 0
Fr, 07.05. 20:30 0
Fr, 07.05. 20:00 0
Fr, 07.05. 19:30 0
Fr, 07.05. 19:00 0
Fr, 07.05. 18:30 0
Fr, 07.05. 18:00 0
Link zu dieser Seite / Seite empfehlen

Das Wetter in ...